createdAt,value
2019-03-30T00:03:10.701Z,7.42
2019-03-30T00:07:47.203Z,7.53
2019-03-30T00:12:23.574Z,7.70
2019-03-30T00:16:59.910Z,7.75
2019-03-30T00:21:36.260Z,5.37
2019-03-30T00:26:12.585Z,8.23
2019-03-30T00:30:48.914Z,10.10
2019-03-30T00:35:25.235Z,7.92
2019-03-30T00:40:01.517Z,7.65
2019-03-30T00:44:37.837Z,8.23
2019-03-30T00:49:14.133Z,7.33
2019-03-30T00:53:50.460Z,7.78
2019-03-30T01:03:02.263Z,6.20
2019-03-30T01:07:38.575Z,6.45
2019-03-30T01:12:14.948Z,8.90
2019-03-30T01:16:51.247Z,5.03
2019-03-30T01:21:27.569Z,12.50
2019-03-30T01:26:04.116Z,9.40
2019-03-30T01:30:40.417Z,5.67
2019-03-30T01:35:16.822Z,6.40
2019-03-30T01:39:53.245Z,6.50
2019-03-30T01:44:29.562Z,8.45
2019-03-30T01:49:05.880Z,8.53
2019-03-30T01:53:42.177Z,5.30
2019-03-30T01:58:18.505Z,9.95
2019-03-30T02:02:54.808Z,9.25
2019-03-30T02:07:31.131Z,8.50
2019-03-30T02:12:07.420Z,7.25
2019-03-30T02:16:43.740Z,5.58
2019-03-30T02:21:20.032Z,6.22
2019-03-30T02:25:56.361Z,8.80
2019-03-30T02:30:32.658Z,5.05
2019-03-30T02:35:08.970Z,7.00
2019-03-30T02:39:45.304Z,5.62
2019-03-30T02:44:21.686Z,10.28
2019-03-30T02:48:57.982Z,7.67
2019-03-30T02:53:34.304Z,7.80
2019-03-30T02:58:10.612Z,5.40
2019-03-30T03:02:46.918Z,6.40
2019-03-30T03:07:23.201Z,6.67
2019-03-30T03:11:59.699Z,4.40
2019-03-30T03:16:35.993Z,5.70
2019-03-30T03:21:12.301Z,5.08
2019-03-30T03:25:48.595Z,8.30
2019-03-30T03:30:24.913Z,10.00
2019-03-30T03:35:01.206Z,5.55
2019-03-30T03:39:37.604Z,6.40
2019-03-30T03:44:13.942Z,5.65
2019-03-30T03:48:50.388Z,6.05
2019-03-30T03:53:26.712Z,4.87
2019-03-30T03:58:04.286Z,4.60
2019-03-30T04:02:41.867Z,5.37
2019-03-30T04:07:21.267Z,5.62
2019-03-30T04:11:59.348Z,7.03
2019-03-30T04:16:35.682Z,6.42
2019-03-30T04:21:11.986Z,6.92
2019-03-30T04:25:48.301Z,4.37
2019-03-30T04:30:24.589Z,6.10
2019-03-30T04:35:00.921Z,5.28
2019-03-30T04:39:37.283Z,5.15
2019-03-30T04:44:13.580Z,9.60
2019-03-30T04:48:49.897Z,7.42
2019-03-30T04:53:26.205Z,4.50
2019-03-30T04:58:02.513Z,7.80
2019-03-30T05:02:38.826Z,9.80
2019-03-30T05:07:15.194Z,5.65
2019-03-30T05:11:51.508Z,6.20
2019-03-30T05:16:27.800Z,8.98
2019-03-30T05:21:04.217Z,5.65
2019-03-30T05:25:40.500Z,6.60
2019-03-30T05:30:16.820Z,5.08
2019-03-30T05:34:53.111Z,5.03
2019-03-30T05:39:29.420Z,5.55
2019-03-30T05:44:05.744Z,5.22
2019-03-30T05:48:42.066Z,5.47
2019-03-30T05:53:18.402Z,5.90
2019-03-30T05:57:52.690Z,8.05
2019-03-30T06:02:28.990Z,6.97
2019-03-30T06:07:05.322Z,6.83
2019-03-30T06:11:41.696Z,6.65
2019-03-30T06:16:18.011Z,6.60
2019-03-30T06:20:54.316Z,7.58
2019-03-30T06:25:30.718Z,8.43
2019-03-30T06:30:16.433Z,9.08
2019-03-30T06:34:52.741Z,10.80
2019-03-30T06:39:29.036Z,5.85
2019-03-30T06:44:05.650Z,6.25
2019-03-30T06:48:41.942Z,4.28
2019-03-30T06:53:18.276Z,5.75
2019-03-30T06:57:54.611Z,8.35
2019-03-30T07:02:30.920Z,5.90
2019-03-30T07:07:08.131Z,8.10
2019-03-30T07:11:45.369Z,7.33
2019-03-30T07:16:22.081Z,6.10
2019-03-30T07:20:58.400Z,8.83
2019-03-30T07:25:34.700Z,10.38
2019-03-30T07:30:11.145Z,5.53
2019-03-30T07:34:47.494Z,10.28
2019-03-30T07:39:23.039Z,10.18
2019-03-30T07:43:59.342Z,5.90
2019-03-30T07:48:35.661Z,10.00
2019-03-30T07:53:25.302Z,6.47
2019-03-30T07:57:49.960Z,5.03
2019-03-30T08:02:26.313Z,5.90
2019-03-30T08:07:02.641Z,7.30
2019-03-30T08:11:38.924Z,6.30
2019-03-30T08:16:15.265Z,5.90
2019-03-30T08:20:51.652Z,9.78
2019-03-30T08:25:27.956Z,8.75
2019-03-30T08:30:04.354Z,5.45
2019-03-30T08:34:40.668Z,4.10
2019-03-30T08:39:16.964Z,6.85
2019-03-30T08:43:53.286Z,5.55
2019-03-30T08:48:29.573Z,7.03
2019-03-30T08:53:05.898Z,6.15
2019-03-30T08:57:42.210Z,5.10
2019-03-30T09:02:18.537Z,4.33
2019-03-30T09:06:54.877Z,7.20
2019-03-30T09:11:31.191Z,5.53
2019-03-30T09:16:07.504Z,4.05
2019-03-30T09:20:43.836Z,3.25
2019-03-30T09:25:20.146Z,4.20
2019-03-30T09:29:56.459Z,6.53
2019-03-30T09:34:32.764Z,4.78
2019-03-30T09:39:09.786Z,4.97
2019-03-30T09:43:46.101Z,4.08
2019-03-30T09:48:22.421Z,4.67
2019-03-30T09:52:58.736Z,2.77
2019-03-30T09:57:35.040Z,9.83
2019-03-30T10:02:11.358Z,6.62
2019-03-30T10:06:47.699Z,4.03
2019-03-30T10:11:24.061Z,3.60
2019-03-30T10:16:00.433Z,4.72
2019-03-30T10:20:36.736Z,8.90
2019-03-30T10:25:13.080Z,4.40
2019-03-30T10:29:49.380Z,5.60
2019-03-30T10:34:25.757Z,5.90
2019-03-30T10:39:02.127Z,5.87
2019-03-30T10:43:38.497Z,7.15
2019-03-30T10:48:14.793Z,5.75
2019-03-30T10:52:51.137Z,9.18
2019-03-30T10:57:27.704Z,9.13
2019-03-30T11:02:04.028Z,7.42
2019-03-30T11:06:40.341Z,5.22
2019-03-30T11:11:16.644Z,3.65
2019-03-30T11:15:52.985Z,4.53
2019-03-30T11:20:29.313Z,8.35
2019-03-30T11:25:08.510Z,8.23
2019-03-30T11:29:43.750Z,5.92
2019-03-30T11:34:20.061Z,8.15
2019-03-30T11:38:56.415Z,10.23
2019-03-30T11:43:32.736Z,11.43
2019-03-30T11:48:09.069Z,10.48
2019-03-30T11:52:45.364Z,7.78
2019-03-30T11:57:21.688Z,13.95
2019-03-30T12:01:57.994Z,10.05
2019-03-30T12:06:34.308Z,17.50
2019-03-30T12:11:10.616Z,13.55
2019-03-30T12:15:46.946Z,13.68
2019-03-30T12:20:23.273Z,13.20
2019-03-30T12:24:59.613Z,14.38
2019-03-30T12:29:35.916Z,12.88
2019-03-30T12:34:13.247Z,15.38
2019-03-30T12:38:49.057Z,14.43
2019-03-30T12:43:25.389Z,19.60
2019-03-30T12:48:01.697Z,14.85
2019-03-30T12:52:38.044Z,17.95
2019-03-30T12:57:14.348Z,19.80
2019-03-30T13:01:50.682Z,19.87
2019-03-30T13:06:26.985Z,17.55
2019-03-30T13:11:03.315Z,14.35
2019-03-30T13:15:39.624Z,14.83
2019-03-30T13:20:16.138Z,14.40
2019-03-30T13:24:52.469Z,14.03
2019-03-30T13:29:28.804Z,15.35
2019-03-30T13:34:05.109Z,18.17
2019-03-30T13:38:41.421Z,13.22
2019-03-30T13:43:17.733Z,14.00
2019-03-30T13:47:54.050Z,13.25
2019-03-30T13:52:30.384Z,13.68
2019-03-30T13:57:06.748Z,12.68
2019-03-30T14:01:43.061Z,10.72
2019-03-30T14:06:20.437Z,14.13
2019-03-30T14:10:57.195Z,10.80
2019-03-30T14:15:34.438Z,11.90
2019-03-30T14:20:11.213Z,15.78
2019-03-30T14:24:47.662Z,13.65
2019-03-30T14:29:25.106Z,16.07
2019-03-30T14:34:01.808Z,19.77
2019-03-30T14:38:38.810Z,20.75
2019-03-30T14:43:15.418Z,15.48
2019-03-30T14:47:52.820Z,14.10
2019-03-30T14:52:29.461Z,14.07
2019-03-30T14:57:07.450Z,15.20
2019-03-30T15:01:45.492Z,16.02
2019-03-30T15:06:23.566Z,15.08
2019-03-30T15:11:04.371Z,15.65
2019-03-30T15:15:41.917Z,15.20
2019-03-30T15:20:21.502Z,17.20
2019-03-30T15:25:00.023Z,19.35
2019-03-30T15:29:38.566Z,20.57
2019-03-30T15:34:17.746Z,17.37
2019-03-30T15:38:56.292Z,15.15
2019-03-30T15:43:38.687Z,16.87
2019-03-30T15:48:13.317Z,13.32
2019-03-30T15:52:51.194Z,15.90
2019-03-30T15:57:30.894Z,12.70
2019-03-30T16:02:09.196Z,18.00
2019-03-30T16:06:47.212Z,15.68
2019-03-30T16:11:25.580Z,16.85
2019-03-30T16:16:03.988Z,17.40
2019-03-30T16:20:42.929Z,21.30
2019-03-30T16:25:20.817Z,21.57
2019-03-30T16:29:59.560Z,21.37
2019-03-30T16:34:38.567Z,16.95
2019-03-30T16:39:16.875Z,17.48
2019-03-30T16:43:55.959Z,15.23
2019-03-30T16:48:34.217Z,13.45
2019-03-30T16:53:13.072Z,20.68
2019-03-30T16:57:53.996Z,38.85
2019-03-30T17:02:32.136Z,16.95
2019-03-30T17:07:12.013Z,22.62
2019-03-30T17:11:51.747Z,20.32
2019-03-30T17:16:29.191Z,91.70
2019-03-30T17:21:10.544Z,19.90
2019-03-30T17:25:49.809Z,23.38
2019-03-30T17:30:28.172Z,24.15
2019-03-30T17:35:06.268Z,26.15
2019-03-30T17:39:51.232Z,19.62
2019-03-30T17:44:28.802Z,22.32
2019-03-30T17:49:07.042Z,23.83
2019-03-30T17:53:45.234Z,19.23
2019-03-30T18:03:06.126Z,18.82
2019-03-30T18:07:44.344Z,21.05
2019-03-30T18:12:22.935Z,19.77
2019-03-30T18:17:00.567Z,16.35
2019-03-30T18:21:38.621Z,18.00
2019-03-30T18:26:17.983Z,17.73
2019-03-30T18:31:02.590Z,19.65
2019-03-30T18:35:42.163Z,19.25
2019-03-30T18:40:31.423Z,22.35
2019-03-30T18:45:09.321Z,21.15
2019-03-30T18:49:47.715Z,18.05
2019-03-30T18:54:27.761Z,19.02
2019-03-30T18:59:05.261Z,23.05
2019-03-30T19:03:43.094Z,16.30
2019-03-30T19:08:20.216Z,21.33
2019-03-30T19:12:58.700Z,18.50
2019-03-30T19:17:35.864Z,20.25
2019-03-30T19:22:18.090Z,22.00
2019-03-30T19:27:06.647Z,25.12
2019-03-30T19:31:45.325Z,26.35
2019-03-30T19:36:22.769Z,19.02
2019-03-30T19:41:01.672Z,17.52
2019-03-30T19:45:38.029Z,18.27
2019-03-30T19:50:15.413Z,16.97
2019-03-30T19:54:56.158Z,15.10
2019-03-30T19:59:32.566Z,18.07
2019-03-30T20:04:08.926Z,15.90
2019-03-30T20:08:45.255Z,16.07
2019-03-30T20:13:21.577Z,22.27
2019-03-30T20:17:57.909Z,16.97
2019-03-30T20:22:34.233Z,16.25
2019-03-30T20:27:10.593Z,16.95
2019-03-30T20:31:46.929Z,15.23
2019-03-30T20:36:23.266Z,13.58
2019-03-30T20:40:59.567Z,14.63
2019-03-30T20:45:35.899Z,15.23
2019-03-30T20:50:12.661Z,17.52
2019-03-30T20:54:49.074Z,24.35
2019-03-30T20:59:39.023Z,16.12
2019-03-30T21:04:03.487Z,16.00
2019-03-30T21:08:39.864Z,11.83
2019-03-30T21:13:16.281Z,12.13
2019-03-30T21:17:52.582Z,13.85
2019-03-30T21:22:28.966Z,15.83
2019-03-30T21:27:05.418Z,13.62
2019-03-30T21:31:43.653Z,13.53
2019-03-30T21:36:19.964Z,15.40
2019-03-30T21:40:56.314Z,10.98
2019-03-30T21:45:32.650Z,13.22
2019-03-30T21:50:09.189Z,12.37
2019-03-30T21:54:45.522Z,16.52
2019-03-30T21:59:21.905Z,13.50
2019-03-30T22:03:58.229Z,17.23
2019-03-30T22:08:34.589Z,11.10
2019-03-30T22:13:12.328Z,12.85
2019-03-30T22:17:49.762Z,12.90
2019-03-30T22:22:28.020Z,19.02
2019-03-30T22:27:04.360Z,11.90
2019-03-30T22:31:40.714Z,14.25
2019-03-30T22:36:17.045Z,12.90
2019-03-30T22:40:53.378Z,15.50
2019-03-30T22:45:29.713Z,13.70
2019-03-30T22:50:06.527Z,14.28
2019-03-30T22:54:42.881Z,12.33
2019-03-30T22:59:19.265Z,13.08
2019-03-30T23:03:57.765Z,14.68
2019-03-30T23:08:34.307Z,11.70
2019-03-30T23:13:09.325Z,13.75
2019-03-30T23:17:45.647Z,12.07
2019-03-30T23:22:22.048Z,12.23
2019-03-30T23:26:58.412Z,12.78
2019-03-30T23:31:34.898Z,15.28
2019-03-30T23:36:11.200Z,11.48
2019-03-30T23:40:47.532Z,12.98
2019-03-30T23:45:23.861Z,16.97
2019-03-30T23:50:00.334Z,12.20
2019-03-30T23:54:36.697Z,14.15
2019-03-30T23:59:13.042Z,9.43
